KOMK/OMK METAR and TAF weather

Enter ICAO airport designator
Station Type Date Time Source
KOMK METAR 2018/12/19 02:53 UTC NOAA

KOMK 190253Z AUTO 18010KT 10SM CLR 06/02 A2977 RMK AO2 SLP087 T00610017 51015


Station Type Date Time Source
KOMK Decoded METAR 2018/12/19 02:53 UTC NOAA

OMAK AIRPORT, WA, United States (KOMK) 48-28N 119-31W 395M
Dec 18, 2018 - 09:53 PM EST / 2018.12.19 0253 UTC
Wind: from the S (180 degrees) at 12 MPH (10 KT):0
Visibility: 10 mile(s):0
Sky conditions: clear
Temperature: 43.0 F (6.1 C)
Dew Point: 35.1 F (1.7 C)
Relative Humidity: 73%
Pressure (altimeter): 29.77 in. Hg (1008 hPa)
Pressure tendency: 0.04 inches (1.5 hPa) higher than three hours ago
ob: KOMK 190253Z AUTO 18010KT 10SM CLR 06/02 A2977 RMK AO2 SLP087 T00610017 51015
cycle: 3

Station Type Date Time Source
KOMK TAF UTC NOAA

Error!


Example: see airport list